sensor_id;sensor_type;location;lat;lon;timestamp;P1;durP1;ratioP1;P2;durP2;ratioP2
23470;SDS011;11908;50.806;4.424;2023-03-01T00:01:21;16.58;;;11.63;;
23470;SDS011;11908;50.806;4.424;2023-03-01T00:03:48;18.73;;;12.10;;
23470;SDS011;11908;50.806;4.424;2023-03-01T00:06:14;19.60;;;12.02;;
23470;SDS011;11908;50.806;4.424;2023-03-01T00:08:40;17.45;;;11.15;;
23470;SDS011;11908;50.806;4.424;2023-03-01T00:11:23;16.88;;;11.68;;
23470;SDS011;11908;50.806;4.424;2023-03-01T00:13:51;18.05;;;11.13;;
23470;SDS011;11908;50.806;4.424;2023-03-01T00:16:20;14.60;;;11.65;;
23470;SDS011;11908;50.806;4.424;2023-03-01T00:18:58;16.15;;;11.38;;
23470;SDS011;11908;50.806;4.424;2023-03-01T00:21:24;16.65;;;12.30;;
23470;SDS011;11908;50.806;4.424;2023-03-01T00:23:51;18.77;;;13.13;;
23470;SDS011;11908;50.806;4.424;2023-03-01T00:26:18;17.63;;;11.88;;
23470;SDS011;11908;50.806;4.424;2023-03-01T00:28:45;15.15;;;11.10;;
23470;SDS011;11908;50.806;4.424;2023-03-01T00:31:15;17.73;;;11.85;;
23470;SDS011;11908;50.806;4.424;2023-03-01T00:33:51;16.67;;;12.07;;
23470;SDS011;11908;50.806;4.424;2023-03-01T00:36:22;17.45;;;12.80;;
23470;SDS011;11908;50.806;4.424;2023-03-01T00:38:49;19.63;;;12.32;;
23470;SDS011;11908;50.806;4.424;2023-03-01T00:41:15;16.00;;;12.00;;
23470;SDS011;11908;50.806;4.424;2023-03-01T00:43:43;19.00;;;12.32;;
23470;SDS011;11908;50.806;4.424;2023-03-01T00:46:10;17.10;;;11.63;;
23470;SDS011;11908;50.806;4.424;2023-03-01T00:48:38;18.35;;;13.02;;
23470;SDS011;11908;50.806;4.424;2023-03-01T00:51:05;19.23;;;12.50;;
23470;SDS011;11908;50.806;4.424;2023-03-01T00:53:33;17.23;;;11.98;;
23470;SDS011;11908;50.806;4.424;2023-03-01T00:55:59;15.90;;;12.20;;
23470;SDS011;11908;50.806;4.424;2023-03-01T00:58:25;17.35;;;12.88;;
23470;SDS011;11908;50.806;4.424;2023-03-01T01:00:50;16.45;;;12.05;;
23470;SDS011;11908;50.806;4.424;2023-03-01T01:03:17;18.08;;;13.15;;
23470;SDS011;11908;50.806;4.424;2023-03-01T01:05:43;15.77;;;11.75;;
23470;SDS011;11908;50.806;4.424;2023-03-01T01:08:09;17.15;;;12.38;;
23470;SDS011;11908;50.806;4.424;2023-03-01T01:10:34;18.05;;;13.15;;
23470;SDS011;11908;50.806;4.424;2023-03-01T01:13:00;18.52;;;12.55;;
23470;SDS011;11908;50.806;4.424;2023-03-01T01:15:26;17.33;;;13.32;;
23470;SDS011;11908;50.806;4.424;2023-03-01T01:17:52;20.73;;;13.32;;
23470;SDS011;11908;50.806;4.424;2023-03-01T01:20:18;17.17;;;13.25;;
23470;SDS011;11908;50.806;4.424;2023-03-01T01:22:43;18.08;;;13.02;;
23470;SDS011;11908;50.806;4.424;2023-03-01T01:25:09;19.58;;;12.68;;
23470;SDS011;11908;50.806;4.424;2023-03-01T01:27:35;18.08;;;12.45;;
23470;SDS011;11908;50.806;4.424;2023-03-01T01:30:01;17.05;;;12.50;;
23470;SDS011;11908;50.806;4.424;2023-03-01T01:32:28;16.52;;;12.25;;
23470;SDS011;11908;50.806;4.424;2023-03-01T01:34:54;15.85;;;12.05;;
23470;SDS011;11908;50.806;4.424;2023-03-01T01:37:19;19.30;;;11.55;;
23470;SDS011;11908;50.806;4.424;2023-03-01T01:39:45;20.17;;;11.98;;
23470;SDS011;11908;50.806;4.424;2023-03-01T01:42:15;20.67;;;12.43;;
23470;SDS011;11908;50.806;4.424;2023-03-01T01:44:44;20.42;;;12.18;;
23470;SDS011;11908;50.806;4.424;2023-03-01T01:47:16;16.90;;;11.65;;
23470;SDS011;11908;50.806;4.424;2023-03-01T01:49:50;19.27;;;12.00;;
23470;SDS011;11908;50.806;4.424;2023-03-01T01:57:28;21.50;;;12.35;;
23470;SDS011;11908;50.806;4.424;2023-03-01T02:00:25;17.40;;;12.20;;
23470;SDS011;11908;50.806;4.424;2023-03-01T02:03:33;20.67;;;11.73;;
23470;SDS011;11908;50.806;4.424;2023-03-01T02:05:52;15.73;;;12.10;;
23470;SDS011;11908;50.806;4.424;2023-03-01T02:08:32;16.23;;;12.40;;
23470;SDS011;11908;50.806;4.424;2023-03-01T02:11:01;19.90;;;12.63;;
23470;SDS011;11908;50.806;4.424;2023-03-01T02:13:29;18.35;;;12.43;;
23470;SDS011;11908;50.806;4.424;2023-03-01T02:15:57;18.48;;;12.80;;
23470;SDS011;11908;50.806;4.424;2023-03-01T02:18:23;15.52;;;11.68;;
23470;SDS011;11908;50.806;4.424;2023-03-01T02:23:27;17.42;;;12.63;;
23470;SDS011;11908;50.806;4.424;2023-03-01T02:26:08;19.25;;;12.18;;
23470;SDS011;11908;50.806;4.424;2023-03-01T02:28:45;20.85;;;12.45;;
23470;SDS011;11908;50.806;4.424;2023-03-01T02:31:14;19.00;;;12.57;;
23470;SDS011;11908;50.806;4.424;2023-03-01T02:34:01;16.38;;;12.10;;
23470;SDS011;11908;50.806;4.424;2023-03-01T02:36:30;17.23;;;12.07;;
23470;SDS011;11908;50.806;4.424;2023-03-01T02:39:06;17.38;;;12.63;;
23470;SDS011;11908;50.806;4.424;2023-03-01T02:41:39;19.58;;;12.57;;
23470;SDS011;11908;50.806;4.424;2023-03-01T02:44:08;18.90;;;13.43;;
23470;SDS011;11908;50.806;4.424;2023-03-01T02:46:34;23.00;;;12.25;;
23470;SDS011;11908;50.806;4.424;2023-03-01T02:49:22;16.85;;;11.98;;
23470;SDS011;11908;50.806;4.424;2023-03-01T02:54:46;18.75;;;13.15;;
23470;SDS011;11908;50.806;4.424;2023-03-01T02:57:19;18.33;;;12.45;;
23470;SDS011;11908;50.806;4.424;2023-03-01T02:59:46;21.73;;;13.07;;
23470;SDS011;11908;50.806;4.424;2023-03-01T03:02:24;19.02;;;11.98;;
23470;SDS011;11908;50.806;4.424;2023-03-01T03:05:04;19.45;;;12.35;;
23470;SDS011;11908;50.806;4.424;2023-03-01T03:07:33;19.20;;;11.75;;
23470;SDS011;11908;50.806;4.424;2023-03-01T03:10:02;17.90;;;12.38;;
23470;SDS011;11908;50.806;4.424;2023-03-01T03:12:29;16.70;;;11.85;;
23470;SDS011;11908;50.806;4.424;2023-03-01T03:14:54;21.67;;;13.10;;
23470;SDS011;11908;50.806;4.424;2023-03-01T03:17:20;19.15;;;12.32;;
23470;SDS011;11908;50.806;4.424;2023-03-01T03:19:49;14.80;;;11.23;;
23470;SDS011;11908;50.806;4.424;2023-03-01T03:22:16;15.60;;;11.30;;
23470;SDS011;11908;50.806;4.424;2023-03-01T03:24:42;17.45;;;11.90;;
23470;SDS011;11908;50.806;4.424;2023-03-01T03:27:08;17.80;;;11.88;;
23470;SDS011;11908;50.806;4.424;2023-03-01T03:29:33;18.38;;;12.18;;
23470;SDS011;11908;50.806;4.424;2023-03-01T03:31:59;17.15;;;11.93;;
23470;SDS011;11908;50.806;4.424;2023-03-01T03:34:25;15.55;;;11.63;;
23470;SDS011;11908;50.806;4.424;2023-03-01T03:36:54;19.02;;;11.77;;
23470;SDS011;11908;50.806;4.424;2023-03-01T03:39:25;16.13;;;11.60;;
23470;SDS011;11908;50.806;4.424;2023-03-01T03:41:52;15.65;;;12.65;;
23470;SDS011;11908;50.806;4.424;2023-03-01T03:44:18;15.07;;;11.73;;
23470;SDS011;11908;50.806;4.424;2023-03-01T03:46:44;16.83;;;12.02;;
23470;SDS011;11908;50.806;4.424;2023-03-01T03:49:10;16.63;;;12.90;;
23470;SDS011;11908;50.806;4.424;2023-03-01T03:51:39;19.10;;;12.32;;
23470;SDS011;11908;50.806;4.424;2023-03-01T03:54:05;15.57;;;11.50;;
23470;SDS011;11908;50.806;4.424;2023-03-01T03:56:30;15.75;;;12.07;;
23470;SDS011;11908;50.806;4.424;2023-03-01T03:58:56;17.83;;;12.05;;
23470;SDS011;11908;50.806;4.424;2023-03-01T04:01:22;17.27;;;12.20;;
23470;SDS011;11908;50.806;4.424;2023-03-01T04:03:48;15.27;;;11.48;;
23470;SDS011;11908;50.806;4.424;2023-03-01T04:06:14;18.08;;;12.18;;
23470;SDS011;11908;50.806;4.424;2023-03-01T04:08:40;14.10;;;11.30;;
23470;SDS011;11908;50.806;4.424;2023-03-01T04:11:06;17.40;;;11.73;;
23470;SDS011;11908;50.806;4.424;2023-03-01T04:13:51;17.88;;;11.75;;
23470;SDS011;11908;50.806;4.424;2023-03-01T04:16:18;17.25;;;12.88;;
23470;SDS011;11908;50.806;4.424;2023-03-01T04:18:44;14.15;;;10.80;;
23470;SDS011;11908;50.806;4.424;2023-03-01T04:21:10;15.73;;;11.82;;
23470;SDS011;11908;50.806;4.424;2023-03-01T04:23:36;15.82;;;11.93;;
23470;SDS011;11908;50.806;4.424;2023-03-01T04:26:02;16.23;;;11.98;;
23470;SDS011;11908;50.806;4.424;2023-03-01T04:28:33;17.20;;;11.82;;
23470;SDS011;11908;50.806;4.424;2023-03-01T04:31:05;15.45;;;11.18;;
23470;SDS011;11908;50.806;4.424;2023-03-01T04:33:38;16.02;;;11.65;;
23470;SDS011;11908;50.806;4.424;2023-03-01T04:36:05;15.38;;;11.52;;
23470;SDS011;11908;50.806;4.424;2023-03-01T04:38:33;17.52;;;11.63;;
23470;SDS011;11908;50.806;4.424;2023-03-01T04:41:00;17.27;;;12.20;;
23470;SDS011;11908;50.806;4.424;2023-03-01T04:43:25;18.00;;;11.85;;
23470;SDS011;11908;50.806;4.424;2023-03-01T04:45:51;14.50;;;11.13;;
23470;SDS011;11908;50.806;4.424;2023-03-01T04:48:16;16.73;;;11.88;;
23470;SDS011;11908;50.806;4.424;2023-03-01T04:50:42;15.10;;;11.75;;
23470;SDS011;11908;50.806;4.424;2023-03-01T04:53:08;17.65;;;11.45;;
23470;SDS011;11908;50.806;4.424;2023-03-01T04:55:33;20.38;;;12.13;;
23470;SDS011;11908;50.806;4.424;2023-03-01T04:57:59;16.40;;;11.38;;
23470;SDS011;11908;50.806;4.424;2023-03-01T05:00:25;17.30;;;11.80;;
23470;SDS011;11908;50.806;4.424;2023-03-01T05:02:59;17.05;;;11.68;;
23470;SDS011;11908;50.806;4.424;2023-03-01T05:08:02;17.00;;;11.27;;
23470;SDS011;11908;50.806;4.424;2023-03-01T05:10:30;15.10;;;11.00;;
23470;SDS011;11908;50.806;4.424;2023-03-01T05:12:57;19.17;;;12.10;;
23470;SDS011;11908;50.806;4.424;2023-03-01T05:15:24;15.98;;;11.65;;
23470;SDS011;11908;50.806;4.424;2023-03-01T05:17:50;18.23;;;11.57;;
23470;SDS011;11908;50.806;4.424;2023-03-01T05:20:17;19.17;;;12.13;;
23470;SDS011;11908;50.806;4.424;2023-03-01T05:22:42;17.20;;;11.45;;
23470;SDS011;11908;50.806;4.424;2023-03-01T05:25:08;17.92;;;11.95;;
23470;SDS011;11908;50.806;4.424;2023-03-01T05:27:35;17.10;;;12.25;;
23470;SDS011;11908;50.806;4.424;2023-03-01T05:30:01;17.67;;;12.13;;
23470;SDS011;11908;50.806;4.424;2023-03-01T05:32:41;17.50;;;11.88;;
23470;SDS011;11908;50.806;4.424;2023-03-01T05:35:09;20.73;;;12.90;;
23470;SDS011;11908;50.806;4.424;2023-03-01T05:37:42;14.52;;;11.40;;
23470;SDS011;11908;50.806;4.424;2023-03-01T05:40:09;17.65;;;12.25;;
23470;SDS011;11908;50.806;4.424;2023-03-01T05:42:41;18.63;;;12.57;;
23470;SDS011;11908;50.806;4.424;2023-03-01T05:45:20;15.85;;;11.45;;
23470;SDS011;11908;50.806;4.424;2023-03-01T05:47:48;17.63;;;12.27;;
23470;SDS011;11908;50.806;4.424;2023-03-01T05:50:16;18.88;;;12.23;;
23470;SDS011;11908;50.806;4.424;2023-03-01T05:52:50;18.40;;;11.32;;
23470;SDS011;11908;50.806;4.424;2023-03-01T05:55:17;16.98;;;12.27;;
23470;SDS011;11908;50.806;4.424;2023-03-01T05:57:46;17.70;;;11.45;;
23470;SDS011;11908;50.806;4.424;2023-03-01T06:00:12;15.90;;;11.93;;
23470;SDS011;11908;50.806;4.424;2023-03-01T06:02:40;18.10;;;12.23;;
23470;SDS011;11908;50.806;4.424;2023-03-01T06:05:07;16.48;;;11.98;;
23470;SDS011;11908;50.806;4.424;2023-03-01T06:07:34;21.48;;;11.48;;
23470;SDS011;11908;50.806;4.424;2023-03-01T06:10:00;16.88;;;11.38;;
23470;SDS011;11908;50.806;4.424;2023-03-01T06:12:29;16.65;;;12.90;;
23470;SDS011;11908;50.806;4.424;2023-03-01T06:14:56;17.35;;;11.43;;
23470;SDS011;11908;50.806;4.424;2023-03-01T06:17:21;16.15;;;12.00;;
23470;SDS011;11908;50.806;4.424;2023-03-01T06:19:47;17.42;;;12.02;;
23470;SDS011;11908;50.806;4.424;2023-03-01T06:22:13;20.40;;;12.48;;
23470;SDS011;11908;50.806;4.424;2023-03-01T06:24:38;21.25;;;12.38;;
23470;SDS011;11908;50.806;4.424;2023-03-01T06:27:04;23.45;;;12.18;;
23470;SDS011;11908;50.806;4.424;2023-03-01T06:29:30;18.98;;;12.45;;
23470;SDS011;11908;50.806;4.424;2023-03-01T06:31:56;16.02;;;12.18;;
23470;SDS011;11908;50.806;4.424;2023-03-01T06:34:21;19.10;;;11.75;;
23470;SDS011;11908;50.806;4.424;2023-03-01T06:36:47;18.80;;;11.90;;
23470;SDS011;11908;50.806;4.424;2023-03-01T06:39:13;19.25;;;11.82;;
23470;SDS011;11908;50.806;4.424;2023-03-01T06:41:38;17.40;;;12.55;;
23470;SDS011;11908;50.806;4.424;2023-03-01T06:44:04;19.10;;;11.48;;
23470;SDS011;11908;50.806;4.424;2023-03-01T06:46:30;21.23;;;12.30;;
23470;SDS011;11908;50.806;4.424;2023-03-01T06:48:56;20.00;;;11.68;;
23470;SDS011;11908;50.806;4.424;2023-03-01T06:51:21;17.20;;;12.32;;
23470;SDS011;11908;50.806;4.424;2023-03-01T06:53:47;19.70;;;11.95;;
23470;SDS011;11908;50.806;4.424;2023-03-01T06:56:12;19.50;;;12.82;;
23470;SDS011;11908;50.806;4.424;2023-03-01T06:58:38;16.70;;;11.68;;
23470;SDS011;11908;50.806;4.424;2023-03-01T07:01:07;18.90;;;11.57;;
23470;SDS011;11908;50.806;4.424;2023-03-01T07:03:33;16.02;;;11.48;;
23470;SDS011;11908;50.806;4.424;2023-03-01T07:05:59;15.07;;;10.70;;
23470;SDS011;11908;50.806;4.424;2023-03-01T07:08:25;13.63;;;10.00;;
23470;SDS011;11908;50.806;4.424;2023-03-01T07:10:57;19.50;;;11.07;;
23470;SDS011;11908;50.806;4.424;2023-03-01T07:13:23;18.75;;;10.82;;
23470;SDS011;11908;50.806;4.424;2023-03-01T07:15:49;21.33;;;10.98;;
23470;SDS011;11908;50.806;4.424;2023-03-01T07:18:15;15.02;;;10.70;;
23470;SDS011;11908;50.806;4.424;2023-03-01T07:20:40;16.50;;;10.38;;
23470;SDS011;11908;50.806;4.424;2023-03-01T07:23:06;14.73;;;10.32;;
23470;SDS011;11908;50.806;4.424;2023-03-01T07:25:32;13.57;;;10.68;;
23470;SDS011;11908;50.806;4.424;2023-03-01T07:27:58;14.65;;;10.93;;
23470;SDS011;11908;50.806;4.424;2023-03-01T07:30:24;12.57;;;10.50;;
23470;SDS011;11908;50.806;4.424;2023-03-01T07:32:52;18.48;;;11.25;;
23470;SDS011;11908;50.806;4.424;2023-03-01T07:35:18;15.82;;;10.73;;
23470;SDS011;11908;50.806;4.424;2023-03-01T07:37:44;16.92;;;10.93;;
23470;SDS011;11908;50.806;4.424;2023-03-01T07:40:10;25.08;;;11.35;;
23470;SDS011;11908;50.806;4.424;2023-03-01T07:42:37;14.95;;;10.48;;
23470;SDS011;11908;50.806;4.424;2023-03-01T07:45:03;13.90;;;10.80;;
23470;SDS011;11908;50.806;4.424;2023-03-01T07:47:29;14.10;;;10.50;;
23470;SDS011;11908;50.806;4.424;2023-03-01T07:49:55;17.15;;;10.38;;
23470;SDS011;11908;50.806;4.424;2023-03-01T07:52:20;15.70;;;10.73;;
23470;SDS011;11908;50.806;4.424;2023-03-01T07:54:46;14.07;;;9.88;;
23470;SDS011;11908;50.806;4.424;2023-03-01T07:57:12;13.15;;;9.65;;
23470;SDS011;11908;50.806;4.424;2023-03-01T07:59:37;14.25;;;10.93;;
23470;SDS011;11908;50.806;4.424;2023-03-01T08:02:03;14.85;;;9.88;;
23470;SDS011;11908;50.806;4.424;2023-03-01T08:04:29;19.95;;;11.70;;
23470;SDS011;11908;50.806;4.424;2023-03-01T08:06:54;14.15;;;10.07;;
23470;SDS011;11908;50.806;4.424;2023-03-01T08:09:20;15.02;;;10.75;;
23470;SDS011;11908;50.806;4.424;2023-03-01T08:11:46;14.57;;;10.32;;
23470;SDS011;11908;50.806;4.424;2023-03-01T08:14:12;13.65;;;10.45;;
23470;SDS011;11908;50.806;4.424;2023-03-01T08:16:38;17.30;;;9.95;;
23470;SDS011;11908;50.806;4.424;2023-03-01T08:19:04;17.83;;;11.00;;
23470;SDS011;11908;50.806;4.424;2023-03-01T08:21:31;14.65;;;10.40;;
23470;SDS011;11908;50.806;4.424;2023-03-01T08:23:59;14.88;;;10.15;;
23470;SDS011;11908;50.806;4.424;2023-03-01T08:26:26;16.05;;;10.23;;
23470;SDS011;11908;50.806;4.424;2023-03-01T08:28:52;16.23;;;10.63;;
23470;SDS011;11908;50.806;4.424;2023-03-01T08:31:19;15.63;;;10.02;;
23470;SDS011;11908;50.806;4.424;2023-03-01T08:33:53;16.05;;;10.52;;
23470;SDS011;11908;50.806;4.424;2023-03-01T08:36:22;16.08;;;9.73;;
23470;SDS011;11908;50.806;4.424;2023-03-01T08:38:49;16.17;;;9.98;;
23470;SDS011;11908;50.806;4.424;2023-03-01T08:41:15;16.58;;;10.45;;
23470;SDS011;11908;50.806;4.424;2023-03-01T08:43:41;14.05;;;10.20;;
23470;SDS011;11908;50.806;4.424;2023-03-01T08:46:07;12.98;;;10.52;;
23470;SDS011;11908;50.806;4.424;2023-03-01T08:48:36;14.68;;;10.73;;
23470;SDS011;11908;50.806;4.424;2023-03-01T08:51:12;13.02;;;9.88;;
23470;SDS011;11908;50.806;4.424;2023-03-01T08:53:40;14.93;;;9.57;;
23470;SDS011;11908;50.806;4.424;2023-03-01T08:56:06;19.15;;;11.13;;
23470;SDS011;11908;50.806;4.424;2023-03-01T08:58:33;16.70;;;9.57;;
23470;SDS011;11908;50.806;4.424;2023-03-01T09:00:59;13.90;;;9.93;;
23470;SDS011;11908;50.806;4.424;2023-03-01T09:03:25;16.27;;;9.73;;
23470;SDS011;11908;50.806;4.424;2023-03-01T09:05:51;21.00;;;10.60;;
23470;SDS011;11908;50.806;4.424;2023-03-01T09:08:18;13.95;;;10.65;;
23470;SDS011;11908;50.806;4.424;2023-03-01T09:10:45;19.08;;;11.13;;
23470;SDS011;11908;50.806;4.424;2023-03-01T09:13:11;13.60;;;10.82;;
23470;SDS011;11908;50.806;4.424;2023-03-01T09:15:37;14.55;;;10.25;;
23470;SDS011;11908;50.806;4.424;2023-03-01T09:18:03;16.73;;;10.43;;
23470;SDS011;11908;50.806;4.424;2023-03-01T09:20:29;13.35;;;10.07;;
23470;SDS011;11908;50.806;4.424;2023-03-01T09:22:56;14.88;;;10.73;;
23470;SDS011;11908;50.806;4.424;2023-03-01T09:25:22;13.43;;;10.32;;
23470;SDS011;11908;50.806;4.424;2023-03-01T09:27:50;18.02;;;10.43;;
23470;SDS011;11908;50.806;4.424;2023-03-01T09:30:16;16.92;;;11.20;;
23470;SDS011;11908;50.806;4.424;2023-03-01T09:32:42;23.35;;;12.93;;
23470;SDS011;11908;50.806;4.424;2023-03-01T09:35:12;13.13;;;10.23;;
23470;SDS011;11908;50.806;4.424;2023-03-01T09:37:38;12.77;;;10.30;;
23470;SDS011;11908;50.806;4.424;2023-03-01T09:40:15;16.13;;;11.48;;
23470;SDS011;11908;50.806;4.424;2023-03-01T09:42:47;15.40;;;10.70;;
23470;SDS011;11908;50.806;4.424;2023-03-01T09:48:16;14.40;;;11.32;;
23470;SDS011;11908;50.806;4.424;2023-03-01T09:50:47;15.82;;;11.23;;
23470;SDS011;11908;50.806;4.424;2023-03-01T09:53:14;14.27;;;10.40;;
23470;SDS011;11908;50.806;4.424;2023-03-01T09:55:48;15.20;;;10.70;;
23470;SDS011;11908;50.806;4.424;2023-03-01T09:58:28;17.92;;;11.38;;
23470;SDS011;11908;50.806;4.424;2023-03-01T10:01:28;12.55;;;10.25;;
23470;SDS011;11908;50.806;4.424;2023-03-01T10:09:55;14.15;;;10.63;;
23470;SDS011;11908;50.806;4.424;2023-03-01T10:12:26;15.60;;;11.05;;
23470;SDS011;11908;50.806;4.424;2023-03-01T10:15:05;16.08;;;11.30;;
23470;SDS011;11908;50.806;4.424;2023-03-01T10:17:44;15.80;;;11.25;;
23470;SDS011;11908;50.806;4.424;2023-03-01T10:20:14;16.65;;;11.50;;
23470;SDS011;11908;50.806;4.424;2023-03-01T10:22:43;18.65;;;11.27;;
23470;SDS011;11908;50.806;4.424;2023-03-01T10:25:14;16.40;;;11.60;;
23470;SDS011;11908;50.806;4.424;2023-03-01T10:32:59;18.17;;;11.30;;
23470;SDS011;11908;50.806;4.424;2023-03-01T10:35:27;14.48;;;11.40;;
23470;SDS011;11908;50.806;4.424;2023-03-01T10:38:04;15.45;;;11.38;;
23470;SDS011;11908;50.806;4.424;2023-03-01T10:40:33;16.50;;;10.75;;
23470;SDS011;11908;50.806;4.424;2023-03-01T10:43:01;17.15;;;11.73;;
23470;SDS011;11908;50.806;4.424;2023-03-01T10:50:45;16.15;;;11.73;;
23470;SDS011;11908;50.806;4.424;2023-03-01T10:55:56;12.15;;;10.73;;
23470;SDS011;11908;50.806;4.424;2023-03-01T10:58:30;14.13;;;10.50;;
23470;SDS011;11908;50.806;4.424;2023-03-01T11:03:35;17.27;;;11.75;;
23470;SDS011;11908;50.806;4.424;2023-03-01T11:13:48;14.85;;;11.48;;
23470;SDS011;11908;50.806;4.424;2023-03-01T11:16:24;16.05;;;10.73;;
23470;SDS011;11908;50.806;4.424;2023-03-01T11:19:25;17.13;;;11.90;;
23470;SDS011;11908;50.806;4.424;2023-03-01T11:27:17;13.85;;;10.40;;
23470;SDS011;11908;50.806;4.424;2023-03-01T11:29:53;16.98;;;11.38;;
23470;SDS011;11908;50.806;4.424;2023-03-01T11:32:25;12.95;;;10.32;;
23470;SDS011;11908;50.806;4.424;2023-03-01T11:34:56;15.10;;;10.80;;
23470;SDS011;11908;50.806;4.424;2023-03-01T11:37:40;14.73;;;10.25;;
23470;SDS011;11908;50.806;4.424;2023-03-01T11:40:17;13.93;;;12.18;;
23470;SDS011;11908;50.806;4.424;2023-03-01T11:48:42;15.68;;;10.35;;
23470;SDS011;11908;50.806;4.424;2023-03-01T11:51:23;14.85;;;10.63;;
23470;SDS011;11908;50.806;4.424;2023-03-01T11:54:02;15.73;;;10.27;;
23470;SDS011;11908;50.806;4.424;2023-03-01T11:59:24;15.68;;;11.02;;
23470;SDS011;11908;50.806;4.424;2023-03-01T12:31:48;15.77;;;9.85;;
23470;SDS011;11908;50.806;4.424;2023-03-01T12:37:19;11.60;;;9.32;;
23470;SDS011;11908;50.806;4.424;2023-03-01T12:51:37;13.80;;;9.02;;
23470;SDS011;11908;50.806;4.424;2023-03-01T12:53:58;12.55;;;9.57;;
23470;SDS011;11908;50.806;4.424;2023-03-01T12:56:27;12.10;;;8.80;;
23470;SDS011;11908;50.806;4.424;2023-03-01T12:59:30;13.73;;;9.18;;
23470;SDS011;11908;50.806;4.424;2023-03-01T13:07:38;12.30;;;8.77;;
23470;SDS011;11908;50.806;4.424;2023-03-01T13:15:38;14.60;;;9.23;;
23470;SDS011;11908;50.806;4.424;2023-03-01T13:31:10;15.05;;;9.63;;
23470;SDS011;11908;50.806;4.424;2023-03-01T13:36:11;17.25;;;8.48;;
23470;SDS011;11908;50.806;4.424;2023-03-01T13:39:00;12.68;;;8.65;;
23470;SDS011;11908;50.806;4.424;2023-03-01T13:46:50;14.00;;;9.70;;
23470;SDS011;11908;50.806;4.424;2023-03-01T13:49:18;11.05;;;9.73;;
23470;SDS011;11908;50.806;4.424;2023-03-01T13:51:50;13.98;;;9.95;;
23470;SDS011;11908;50.806;4.424;2023-03-01T13:54:20;13.05;;;9.32;;
23470;SDS011;11908;50.806;4.424;2023-03-01T13:56:54;14.27;;;9.27;;
23470;SDS011;11908;50.806;4.424;2023-03-01T13:59:21;15.20;;;9.30;;
23470;SDS011;11908;50.806;4.424;2023-03-01T14:01:54;12.02;;;8.50;;
23470;SDS011;11908;50.806;4.424;2023-03-01T14:04:23;11.43;;;8.65;;
23470;SDS011;11908;50.806;4.424;2023-03-01T14:06:52;15.98;;;9.25;;
23470;SDS011;11908;50.806;4.424;2023-03-01T14:09:33;12.73;;;8.88;;
23470;SDS011;11908;50.806;4.424;2023-03-01T14:14:52;20.90;;;9.70;;
23470;SDS011;11908;50.806;4.424;2023-03-01T14:17:38;13.68;;;10.15;;
23470;SDS011;11908;50.806;4.424;2023-03-01T14:20:29;13.68;;;9.70;;
23470;SDS011;11908;50.806;4.424;2023-03-01T14:22:58;15.70;;;9.32;;
23470;SDS011;11908;50.806;4.424;2023-03-01T14:25:34;14.32;;;9.15;;
23470;SDS011;11908;50.806;4.424;2023-03-01T14:30:41;13.32;;;9.35;;
23470;SDS011;11908;50.806;4.424;2023-03-01T14:33:26;13.85;;;9.05;;
23470;SDS011;11908;50.806;4.424;2023-03-01T14:38:35;17.33;;;9.93;;
23470;SDS011;11908;50.806;4.424;2023-03-01T14:41:15;13.88;;;9.52;;
23470;SDS011;11908;50.806;4.424;2023-03-01T14:43:49;15.33;;;9.47;;
23470;SDS011;11908;50.806;4.424;2023-03-01T14:48:49;11.10;;;8.80;;
23470;SDS011;11908;50.806;4.424;2023-03-01T14:51:19;12.55;;;8.45;;
23470;SDS011;11908;50.806;4.424;2023-03-01T14:53:44;13.20;;;9.00;;
23470;SDS011;11908;50.806;4.424;2023-03-01T14:56:14;12.95;;;8.85;;
23470;SDS011;11908;50.806;4.424;2023-03-01T14:58:42;19.52;;;8.93;;
23470;SDS011;11908;50.806;4.424;2023-03-01T15:01:13;15.60;;;9.77;;
23470;SDS011;11908;50.806;4.424;2023-03-01T15:03:41;12.52;;;9.05;;
23470;SDS011;11908;50.806;4.424;2023-03-01T15:06:14;15.52;;;8.85;;
23470;SDS011;11908;50.806;4.424;2023-03-01T15:08:49;13.30;;;9.02;;
23470;SDS011;11908;50.806;4.424;2023-03-01T15:11:27;14.45;;;8.23;;
23470;SDS011;11908;50.806;4.424;2023-03-01T15:13:57;14.13;;;9.15;;
23470;SDS011;11908;50.806;4.424;2023-03-01T15:16:27;15.10;;;9.07;;
23470;SDS011;11908;50.806;4.424;2023-03-01T15:18:56;17.90;;;9.82;;
23470;SDS011;11908;50.806;4.424;2023-03-01T15:21:29;13.55;;;9.80;;
23470;SDS011;11908;50.806;4.424;2023-03-01T15:26:45;13.15;;;8.77;;
23470;SDS011;11908;50.806;4.424;2023-03-01T15:29:31;13.95;;;9.13;;
23470;SDS011;11908;50.806;4.424;2023-03-01T15:32:03;11.80;;;8.73;;
23470;SDS011;11908;50.806;4.424;2023-03-01T15:34:49;12.05;;;8.93;;
23470;SDS011;11908;50.806;4.424;2023-03-01T15:40:25;14.95;;;9.60;;
23470;SDS011;11908;50.806;4.424;2023-03-01T15:43:02;13.65;;;9.02;;
23470;SDS011;11908;50.806;4.424;2023-03-01T15:45:30;11.27;;;8.35;;
23470;SDS011;11908;50.806;4.424;2023-03-01T15:48:02;13.45;;;8.80;;
23470;SDS011;11908;50.806;4.424;2023-03-01T15:50:31;12.98;;;8.60;;
23470;SDS011;11908;50.806;4.424;2023-03-01T15:53:04;13.18;;;8.57;;
23470;SDS011;11908;50.806;4.424;2023-03-01T15:55:32;12.25;;;7.57;;
23470;SDS011;11908;50.806;4.424;2023-03-01T16:00:46;11.63;;;8.70;;
23470;SDS011;11908;50.806;4.424;2023-03-01T16:03:13;12.98;;;8.63;;
23470;SDS011;11908;50.806;4.424;2023-03-01T16:05:46;12.25;;;8.18;;
23470;SDS011;11908;50.806;4.424;2023-03-01T16:08:13;17.02;;;8.95;;
23470;SDS011;11908;50.806;4.424;2023-03-01T16:10:40;10.10;;;8.40;;
23470;SDS011;11908;50.806;4.424;2023-03-01T16:13:08;11.65;;;7.85;;
23470;SDS011;11908;50.806;4.424;2023-03-01T16:15:37;10.80;;;7.65;;
23470;SDS011;11908;50.806;4.424;2023-03-01T16:18:04;13.45;;;7.70;;
23470;SDS011;11908;50.806;4.424;2023-03-01T16:20:31;14.50;;;8.70;;
23470;SDS011;11908;50.806;4.424;2023-03-01T16:22:58;13.93;;;8.10;;
23470;SDS011;11908;50.806;4.424;2023-03-01T16:25:28;12.75;;;8.13;;
23470;SDS011;11908;50.806;4.424;2023-03-01T16:27:55;14.02;;;8.80;;
23470;SDS011;11908;50.806;4.424;2023-03-01T16:30:23;11.60;;;7.95;;
23470;SDS011;11908;50.806;4.424;2023-03-01T16:32:49;11.52;;;7.65;;
23470;SDS011;11908;50.806;4.424;2023-03-01T16:35:17;12.93;;;7.60;;
23470;SDS011;11908;50.806;4.424;2023-03-01T16:37:45;13.13;;;7.95;;
23470;SDS011;11908;50.806;4.424;2023-03-01T16:40:19;10.68;;;7.38;;
23470;SDS011;11908;50.806;4.424;2023-03-01T16:42:49;12.15;;;7.78;;
23470;SDS011;11908;50.806;4.424;2023-03-01T16:45:16;12.27;;;7.82;;
23470;SDS011;11908;50.806;4.424;2023-03-01T16:47:42;13.65;;;7.90;;
23470;SDS011;11908;50.806;4.424;2023-03-01T16:50:08;12.73;;;7.32;;
23470;SDS011;11908;50.806;4.424;2023-03-01T16:52:34;12.63;;;8.20;;
23470;SDS011;11908;50.806;4.424;2023-03-01T16:55:01;11.02;;;7.60;;
23470;SDS011;11908;50.806;4.424;2023-03-01T16:57:28;14.23;;;7.45;;
23470;SDS011;11908;50.806;4.424;2023-03-01T16:59:55;11.75;;;7.95;;
23470;SDS011;11908;50.806;4.424;2023-03-01T17:02:20;11.55;;;7.78;;
23470;SDS011;11908;50.806;4.424;2023-03-01T17:04:53;10.75;;;7.47;;
23470;SDS011;11908;50.806;4.424;2023-03-01T17:09:45;12.40;;;7.65;;
23470;SDS011;11908;50.806;4.424;2023-03-01T17:12:14;12.90;;;7.88;;
23470;SDS011;11908;50.806;4.424;2023-03-01T17:14:40;10.35;;;7.63;;
23470;SDS011;11908;50.806;4.424;2023-03-01T17:17:07;11.73;;;7.70;;